createdAt,value
2023-01-21T00:00:48.037Z,29.40
2023-01-21T00:05:48.778Z,29.30
2023-01-21T00:10:49.482Z,28.80
2023-01-21T00:15:50.251Z,26.60
2023-01-21T00:20:50.918Z,22.70
2023-01-21T00:25:51.658Z,25.40
2023-01-21T00:30:52.710Z,23.30
2023-01-21T00:35:52.890Z,24.60
2023-01-21T00:40:53.614Z,23.80
2023-01-21T00:45:54.412Z,24.10
2023-01-21T00:50:55.135Z,23.00
2023-01-21T00:55:55.814Z,21.40
2023-01-21T01:00:56.720Z,19.70
2023-01-21T01:05:57.448Z,22.00
2023-01-21T01:10:58.167Z,21.00
2023-01-21T01:15:59.061Z,19.30
2023-01-21T01:20:59.786Z,18.30
2023-01-21T01:26:00.596Z,17.70
2023-01-21T01:31:01.406Z,17.20
2023-01-21T01:36:02.148Z,22.30
2023-01-21T01:41:02.853Z,20.10
2023-01-21T01:46:03.632Z,23.00
2023-01-21T01:51:04.529Z,20.50
2023-01-21T01:56:05.236Z,19.80
2023-01-21T02:01:05.973Z,25.50
2023-01-21T02:06:06.711Z,28.10
2023-01-21T02:11:07.486Z,28.30
2023-01-21T02:16:08.237Z,32.30
2023-01-21T02:21:08.942Z,33.00
2023-01-21T02:26:09.685Z,40.80
2023-01-21T02:31:10.550Z,36.20
2023-01-21T02:36:11.269Z,39.20
2023-01-21T02:41:12.027Z,37.50
2023-01-21T02:46:12.770Z,35.70
2023-01-21T02:51:13.554Z,39.30
2023-01-21T02:56:14.240Z,35.10
2023-01-21T03:01:15.031Z,30.10
2023-01-21T03:06:15.787Z,30.70
2023-01-21T03:11:16.534Z,30.80
2023-01-21T03:16:17.333Z,31.20
2023-01-21T03:21:18.021Z,29.90
2023-01-21T03:26:18.733Z,30.80
2023-01-21T03:31:19.445Z,28.60
2023-01-21T03:36:20.276Z,24.80
2023-01-21T03:41:20.927Z,26.00
2023-01-21T03:46:21.634Z,27.50
2023-01-21T03:51:22.377Z,25.90
2023-01-21T03:56:23.158Z,23.60
2023-01-21T04:01:23.810Z,21.10
2023-01-21T04:06:24.534Z,21.40
2023-01-21T04:11:25.305Z,18.50
2023-01-21T04:16:26.024Z,18.60
2023-01-21T04:21:26.832Z,18.60
2023-01-21T04:26:27.830Z,18.30
2023-01-21T04:31:28.131Z,17.60
2023-01-21T04:36:28.842Z,16.70
2023-01-21T04:41:29.535Z,15.20
2023-01-21T04:46:30.249Z,16.70
2023-01-21T04:51:31.018Z,17.40
2023-01-21T04:56:31.708Z,16.90
2023-01-21T05:01:39.440Z,16.20
2023-01-21T05:06:33.130Z,17.70
2023-01-21T05:11:33.984Z,18.50
2023-01-21T05:16:34.694Z,17.20
2023-01-21T05:21:35.417Z,16.90
2023-01-21T05:26:36.159Z,18.70
2023-01-21T05:31:37.073Z,17.10
2023-01-21T05:36:37.331Z,16.90
2023-01-21T05:41:38.078Z,18.00
2023-01-21T05:46:38.847Z,17.00
2023-01-21T05:51:39.561Z,18.20
2023-01-21T05:56:40.291Z,18.50
2023-01-21T06:01:41.059Z,17.00
2023-01-21T06:06:41.775Z,18.30
2023-01-21T06:11:42.484Z,18.10
2023-01-21T06:16:43.091Z,19.90
2023-01-21T06:21:43.853Z,20.50
2023-01-21T06:26:44.563Z,23.90
2023-01-21T06:31:45.406Z,23.90
2023-01-21T06:36:46.140Z,24.10
2023-01-21T06:41:46.842Z,25.30
2023-01-21T06:47:00.041Z,26.30
2023-01-21T06:51:49.107Z,30.00
2023-01-21T06:56:48.779Z,29.80
2023-01-21T07:01:49.496Z,34.30
2023-01-21T07:06:50.156Z,34.10
2023-01-21T07:11:50.942Z,33.20
2023-01-21T07:16:51.600Z,35.10
2023-01-21T07:21:52.276Z,35.70
2023-01-21T07:26:52.940Z,32.70
2023-01-21T07:31:53.691Z,34.30
2023-01-21T07:36:54.373Z,34.10
2023-01-21T07:41:55.049Z,32.00
2023-01-21T07:46:55.704Z,30.90
2023-01-21T07:51:56.408Z,29.60
2023-01-21T07:56:57.032Z,29.70
2023-01-21T08:01:57.789Z,32.10
2023-01-21T08:06:58.587Z,27.70
2023-01-21T08:11:59.293Z,28.30
2023-01-21T08:16:59.950Z,26.40
2023-01-21T08:22:00.628Z,28.10
2023-01-21T08:27:01.297Z,28.70
2023-01-21T08:32:01.979Z,31.30
2023-01-21T08:37:02.622Z,32.10
2023-01-21T08:42:03.305Z,29.90
2023-01-21T08:47:04.017Z,30.10
2023-01-21T08:52:04.701Z,36.40
2023-01-21T08:57:05.357Z,41.80
2023-01-21T09:02:06.119Z,34.00
2023-01-21T09:07:06.760Z,31.20
2023-01-21T09:12:07.491Z,34.20
2023-01-21T09:17:08.140Z,34.10
2023-01-21T09:22:08.812Z,34.90
2023-01-21T09:27:09.540Z,38.70
2023-01-21T09:32:10.205Z,30.70
2023-01-21T09:37:10.881Z,31.90
2023-01-21T09:42:11.571Z,27.40
2023-01-21T09:47:12.273Z,30.60
2023-01-21T09:52:12.972Z,29.80
2023-01-21T09:57:13.656Z,28.80
2023-01-21T10:02:14.383Z,45.60
2023-01-21T10:07:15.093Z,33.10
2023-01-21T10:12:15.749Z,31.70
2023-01-21T10:17:16.488Z,30.00
2023-01-21T10:22:17.153Z,30.90
2023-01-21T10:27:17.864Z,29.50
2023-01-21T10:32:18.515Z,32.90
2023-01-21T10:37:19.192Z,30.30
2023-01-21T10:42:19.937Z,29.80
2023-01-21T10:47:20.653Z,27.10
2023-01-21T10:52:21.342Z,27.90
2023-01-21T10:57:22.046Z,25.00
2023-01-21T11:02:30.744Z,24.40
2023-01-21T11:07:23.386Z,23.90
2023-01-21T11:12:24.145Z,24.80
2023-01-21T11:17:24.892Z,24.10
2023-01-21T11:22:25.609Z,23.00
2023-01-21T11:27:26.325Z,22.80
2023-01-21T11:32:27.066Z,21.50
2023-01-21T11:37:27.887Z,21.70
2023-01-21T11:42:28.546Z,24.90
2023-01-21T11:47:29.235Z,21.50
2023-01-21T11:52:29.989Z,20.90
2023-01-21T11:57:30.633Z,23.30
2023-01-21T12:02:31.409Z,22.70
2023-01-21T12:07:32.147Z,22.00
2023-01-21T12:12:32.817Z,18.40
2023-01-21T12:17:33.487Z,18.20
2023-01-21T12:22:34.268Z,20.40
2023-01-21T12:27:34.979Z,18.40
2023-01-21T12:32:35.639Z,17.10
2023-01-21T12:37:36.435Z,15.70
2023-01-21T12:42:37.089Z,13.00
2023-01-21T12:47:37.761Z,14.50
2023-01-21T12:52:38.413Z,13.10
2023-01-21T12:57:39.120Z,13.50
2023-01-21T13:02:39.867Z,14.80
2023-01-21T13:07:40.663Z,12.30
2023-01-21T13:12:41.299Z,12.60
2023-01-21T13:17:42.963Z,11.20
2023-01-21T13:22:42.703Z,12.50
2023-01-21T13:27:44.441Z,13.10
2023-01-21T13:32:44.159Z,12.40
2023-01-21T13:37:44.854Z,16.20
2023-01-21T13:42:45.601Z,15.00
2023-01-21T13:47:46.286Z,18.60
2023-01-21T13:52:46.931Z,14.70
2023-01-21T13:57:47.593Z,12.90
2023-01-21T14:02:48.273Z,12.10
2023-01-21T14:07:48.929Z,9.70
2023-01-21T14:12:49.620Z,11.10
2023-01-21T14:17:50.291Z,11.20
2023-01-21T14:22:50.992Z,11.60
2023-01-21T14:27:51.687Z,12.30
2023-01-21T14:32:52.349Z,8.80
2023-01-21T14:37:53.023Z,8.50
2023-01-21T14:42:53.751Z,12.00
2023-01-21T14:47:54.450Z,7.70
2023-01-21T14:52:55.124Z,8.30
2023-01-21T14:57:55.793Z,8.60
2023-01-21T15:02:56.484Z,7.90
2023-01-21T15:07:57.135Z,8.00
2023-01-21T15:12:57.803Z,8.20
2023-01-21T15:17:58.493Z,8.50
2023-01-21T15:22:59.137Z,10.20
2023-01-21T15:27:59.834Z,10.20
2023-01-21T15:33:01.958Z,9.50
2023-01-21T15:38:01.233Z,8.20
2023-01-21T15:43:01.883Z,9.00
2023-01-21T15:48:02.605Z,8.30
2023-01-21T15:53:03.265Z,8.90
2023-01-21T15:58:03.950Z,8.20
2023-01-21T16:03:04.706Z,9.20
2023-01-21T16:08:05.435Z,8.40
2023-01-21T16:13:06.188Z,9.30
2023-01-21T16:18:06.929Z,10.20
2023-01-21T16:23:07.660Z,8.90
2023-01-21T16:28:08.343Z,10.20
2023-01-21T16:33:09.094Z,8.60
2023-01-21T16:38:09.830Z,9.60
2023-01-21T16:43:10.551Z,8.90
2023-01-21T16:48:11.308Z,9.70
2023-01-21T16:53:12.078Z,11.10
2023-01-21T16:58:12.792Z,10.80
2023-01-21T17:03:13.511Z,10.30
2023-01-21T17:08:14.248Z,13.80
2023-01-21T17:13:14.992Z,10.00
2023-01-21T17:18:15.688Z,12.20
2023-01-21T17:23:17.450Z,9.00
2023-01-21T17:28:17.151Z,9.60
2023-01-21T17:33:17.920Z,10.70
2023-01-21T17:38:18.633Z,10.00
2023-01-21T17:43:19.372Z,10.60
2023-01-21T17:48:20.186Z,10.60
2023-01-21T17:53:20.935Z,11.60
2023-01-21T17:58:21.664Z,12.20
2023-01-21T18:03:22.438Z,9.00
2023-01-21T18:08:23.194Z,10.50
2023-01-21T18:13:23.925Z,9.40
2023-01-21T18:18:24.658Z,12.70
2023-01-21T18:23:25.454Z,11.40
2023-01-21T18:28:26.187Z,11.00
2023-01-21T18:33:26.926Z,11.30
2023-01-21T18:38:27.833Z,10.80
2023-01-21T18:43:28.577Z,10.20
2023-01-21T18:48:29.442Z,12.00
2023-01-21T18:53:30.110Z,10.20
2023-01-21T18:58:30.822Z,12.50
2023-01-21T19:03:32.600Z,13.80
2023-01-21T19:08:32.324Z,13.10
2023-01-21T19:13:33.078Z,12.80
2023-01-21T19:18:33.835Z,9.70
2023-01-21T19:23:35.458Z,11.50
2023-01-21T19:28:35.200Z,11.80
2023-01-21T19:33:36.067Z,8.30
2023-01-21T19:38:36.851Z,10.10
2023-01-21T19:43:37.583Z,13.50
2023-01-21T19:48:38.368Z,12.50
2023-01-21T19:53:39.235Z,14.30
2023-01-21T19:58:39.954Z,11.90
2023-01-21T20:03:54.694Z,12.70
2023-01-21T20:08:42.326Z,10.30
2023-01-21T20:13:42.030Z,11.70
2023-01-21T20:18:42.863Z,13.30
2023-01-21T20:23:43.754Z,9.60
2023-01-21T20:28:44.514Z,13.90
2023-01-21T20:33:45.263Z,13.70
2023-01-21T20:38:46.142Z,10.10
2023-01-21T20:43:46.977Z,11.70
2023-01-21T20:48:47.738Z,12.00
2023-01-21T20:53:48.454Z,10.90
2023-01-21T20:58:49.255Z,10.20
2023-01-21T21:03:49.965Z,11.50
2023-01-21T21:08:50.725Z,12.00
2023-01-21T21:13:51.470Z,14.30
2023-01-21T21:18:52.250Z,12.80
2023-01-21T21:23:53.368Z,11.30
2023-01-21T21:28:53.619Z,11.30
2023-01-21T21:33:54.346Z,10.90
2023-01-21T21:38:55.173Z,9.90
2023-01-21T21:43:56.013Z,13.10
2023-01-21T21:48:56.879Z,13.60
2023-01-21T21:53:57.617Z,11.10
2023-01-21T21:58:58.303Z,11.50
2023-01-21T22:03:59.107Z,10.10
2023-01-21T22:08:59.835Z,11.10
2023-01-21T22:14:00.640Z,10.80
2023-01-21T22:19:01.377Z,11.20
2023-01-21T22:24:02.103Z,9.70
2023-01-21T22:29:02.843Z,9.00
2023-01-21T22:34:03.651Z,10.50
2023-01-21T22:39:04.363Z,9.80
2023-01-21T22:44:05.066Z,10.60
2023-01-21T22:49:05.912Z,10.10
2023-01-21T22:54:06.660Z,11.80
2023-01-21T22:59:07.420Z,10.20
2023-01-21T23:04:08.125Z,10.50
2023-01-21T23:09:11.290Z,9.70
2023-01-21T23:14:09.496Z,9.50
2023-01-21T23:19:10.189Z,9.80
2023-01-21T23:24:10.914Z,10.90
2023-01-21T23:29:11.642Z,11.80
2023-01-21T23:34:12.420Z,11.80
2023-01-21T23:39:13.155Z,10.70
2023-01-21T23:44:13.874Z,9.80
2023-01-21T23:49:14.625Z,8.10
2023-01-21T23:54:15.348Z,8.20
2023-01-21T23:59:16.142Z,7.80
